createdAt,value
2022-11-05T07:19:32.336Z,101142.38
2022-11-05T07:21:53.229Z,101162.25
2022-11-05T07:24:40.879Z,101115.94
2022-11-05T07:27:36.034Z,101157.31
2022-11-05T07:30:22.917Z,101186.94
2022-11-05T07:33:12.850Z,101141.22
2022-11-05T07:36:02.292Z,101193.41
2022-11-05T07:38:57.402Z,101186.47
2022-11-05T07:42:49.541Z,101139.06
2022-11-05T07:45:07.189Z,101152.03
2022-11-05T07:47:58.827Z,101153.78
2022-11-05T07:50:47.313Z,101167.06
2022-11-05T07:53:32.897Z,101165.78
2022-11-05T07:56:19.459Z,101178.13
2022-11-05T07:59:29.184Z,101179.56
2022-11-05T11:50:05.398Z,101261.44
2022-11-05T11:55:22.726Z,101273.44
2022-11-05T12:05:27.816Z,101245.56
2022-11-05T12:09:05.406Z,101260.72
2022-11-05T12:11:38.190Z,101205.75
2022-11-05T12:14:46.188Z,101239.25
2022-11-05T12:18:10.739Z,101237.03
2022-11-05T12:21:34.642Z,101253.38
2022-11-05T12:26:26.267Z,101246.91
2022-11-05T12:28:28.639Z,101235.31
2022-11-05T12:32:44.570Z,101180.28
2022-11-05T12:36:02.481Z,101254.63
2022-11-05T12:39:47.987Z,101230.16
2022-11-05T12:43:00.518Z,101203.19
2022-11-05T12:46:03.562Z,101255.00
2022-11-05T12:49:03.858Z,101246.22
2022-11-05T12:52:18.294Z,101251.81
2022-11-05T12:55:11.077Z,101209.78
2022-11-05T12:58:04.580Z,101228.84
2022-11-05T13:00:57.883Z,101237.13
2022-11-05T13:03:54.287Z,101233.69
2022-11-05T13:07:17.250Z,101236.56
2022-11-05T13:10:27.504Z,101171.28
2022-11-05T13:14:30.212Z,101205.66
2022-11-05T13:16:55.901Z,101236.59
2022-11-05T13:19:51.450Z,101195.03
2022-11-05T13:23:30.086Z,101191.50
2022-11-05T13:30:38.244Z,101181.06
2022-11-05T13:37:54.138Z,101225.81
2022-11-05T13:41:29.679Z,101228.28
2022-11-05T13:45:00.326Z,101237.06
2022-11-05T13:47:59.763Z,101246.44
2022-11-05T13:50:59.525Z,101235.78
2022-11-05T13:54:01.707Z,101256.63
2022-11-05T13:56:51.065Z,101249.47
2022-11-05T13:59:54.422Z,101250.19
2022-11-05T14:02:49.054Z,101245.53
2022-11-05T14:05:40.181Z,101237.88
2022-11-05T14:08:33.483Z,101235.91
2022-11-05T14:11:34.662Z,101261.84
2022-11-05T14:14:28.280Z,101202.00
2022-11-05T14:17:29.845Z,101260.28
2022-11-05T14:20:26.934Z,101269.78
2022-11-05T14:23:24.460Z,101265.69
2022-11-05T14:26:34.316Z,101217.06
2022-11-05T14:29:24.481Z,101225.13
2022-11-05T14:32:23.707Z,101269.06
2022-11-05T14:35:17.924Z,101262.50
2022-11-05T14:38:06.165Z,101201.88
2022-11-05T14:41:04.308Z,101248.50
2022-11-05T14:44:01.343Z,101252.22
2022-11-05T14:46:50.404Z,101248.63
2022-11-05T14:49:54.041Z,101275.16
2022-11-05T14:52:50.089Z,101272.06
2022-11-05T14:55:42.546Z,101248.22
2022-11-05T14:58:32.104Z,101259.28
2022-11-05T15:01:42.759Z,101287.53
2022-11-05T15:04:29.949Z,101287.34
2022-11-05T15:07:24.256Z,101290.06
2022-11-05T15:10:15.957Z,101278.78
2022-11-05T15:13:06.287Z,101290.69
2022-11-05T15:15:52.817Z,101250.22
2022-11-05T15:18:45.343Z,101257.91
2022-11-05T15:21:36.237Z,101216.13
2022-11-05T15:24:23.050Z,101236.75
2022-11-05T15:27:21.997Z,101235.78
2022-11-05T15:30:20.612Z,101238.66
2022-11-05T15:33:22.240Z,101231.03
2022-11-05T15:36:11.000Z,101302.13
2022-11-05T15:39:27.528Z,101294.06
2022-11-05T15:42:11.723Z,101297.16
2022-11-05T15:45:03.649Z,101311.13
2022-11-05T15:47:53.042Z,101253.88
2022-11-05T15:50:38.993Z,101255.47
2022-11-05T15:53:56.553Z,101310.78
2022-11-05T15:56:53.223Z,101300.31
2022-11-05T15:59:39.207Z,101249.91
2022-11-05T16:02:33.539Z,101251.28
2022-11-05T16:05:19.447Z,101274.91
2022-11-05T16:08:05.577Z,101315.09
2022-11-05T16:10:54.415Z,101262.03
2022-11-05T16:13:41.749Z,101300.59
2022-11-05T16:16:34.325Z,101290.63
2022-11-05T16:19:42.029Z,101292.31
2022-11-05T16:22:44.880Z,101286.13
2022-11-05T16:25:37.061Z,101319.16
2022-11-05T16:28:26.590Z,101286.91
